createdAt,value
2018-12-25T00:00:40.870Z,83.59
2018-12-25T00:01:40.889Z,83.39
2018-12-25T00:02:40.916Z,83.59
2018-12-25T00:03:41.181Z,83.49
2018-12-25T00:04:40.941Z,83.59
2018-12-25T00:05:41.226Z,83.49
2018-12-25T00:06:41.243Z,83.59
2018-12-25T00:07:41.261Z,83.49
2018-12-25T00:08:41.266Z,83.49
2018-12-25T00:09:41.036Z,83.3
2018-12-25T00:10:41.305Z,83.3
2018-12-25T00:11:41.335Z,83.49
2018-12-25T00:12:41.075Z,83.39
2018-12-25T00:13:41.364Z,83.39
2018-12-25T00:14:41.113Z,83.49
2018-12-25T00:15:41.398Z,83.3
2018-12-25T00:16:41.149Z,83.3
2018-12-25T00:17:41.175Z,83.49
2018-12-25T00:18:41.184Z,83.87
2018-12-25T00:19:41.213Z,83.39
2018-12-25T00:20:41.218Z,83.59
2018-12-25T00:21:41.236Z,83.59
2018-12-25T00:22:41.259Z,83.59
2018-12-25T00:23:41.278Z,83.49
2018-12-25T00:24:41.284Z,83.39
2018-12-25T00:25:41.573Z,83.59
2018-12-25T00:26:41.318Z,83.68
2018-12-25T00:27:41.609Z,83.59
2018-12-25T00:28:41.369Z,83.49
2018-12-25T00:29:41.376Z,83.68
2018-12-25T00:30:41.395Z,83.68
2018-12-25T00:31:41.669Z,83.68
2018-12-25T00:32:41.696Z,83.49
2018-12-25T00:33:41.448Z,83.68
2018-12-25T00:34:41.460Z,83.68
2018-12-25T00:35:41.825Z,83.39
2018-12-25T00:36:41.500Z,83.11
2018-12-25T00:37:41.765Z,83.39
2018-12-25T00:38:41.784Z,83.3
2018-12-25T00:39:41.547Z,83.2
2018-12-25T00:40:41.823Z,83.49
2018-12-25T00:41:41.587Z,83.39
2018-12-25T00:42:41.607Z,83.49
2018-12-25T00:43:41.618Z,83.3
2018-12-25T00:44:41.644Z,83.49
2018-12-25T00:45:41.659Z,83.3
2018-12-25T00:46:41.669Z,83.49
2018-12-25T00:47:41.957Z,83.59
2018-12-25T00:48:41.699Z,83.59
2018-12-25T00:49:41.722Z,83.59
2018-12-25T00:50:41.735Z,83.59
2018-12-25T00:51:42.030Z,83.49
2018-12-25T00:52:42.031Z,83.59
2018-12-25T00:53:42.067Z,83.39
2018-12-25T00:54:42.126Z,83.3
2018-12-25T00:55:41.822Z,83.3
2018-12-25T00:56:42.099Z,83.49
2018-12-25T00:57:41.867Z,83.3
2018-12-25T00:58:42.132Z,83.59
2018-12-25T00:59:41.905Z,83.3
2018-12-25T01:00:42.217Z,83.49
2018-12-25T01:01:41.935Z,83.49
2018-12-25T01:02:41.946Z,83.39
2018-12-25T01:03:41.962Z,83.3
2018-12-25T01:04:41.982Z,83.39
2018-12-25T01:05:41.996Z,83.2
2018-12-25T01:06:42.281Z,83.11
2018-12-25T01:07:42.035Z,83.39
2018-12-25T01:08:42.315Z,83.3
2018-12-25T01:09:42.332Z,83.87
2018-12-25T01:10:42.356Z,83.39
2018-12-25T01:11:42.371Z,83.49
2018-12-25T01:12:42.124Z,83.49
2018-12-25T01:13:42.391Z,83.3
2018-12-25T01:14:42.426Z,83.49
2018-12-25T01:15:42.426Z,83.39
2018-12-25T01:16:42.192Z,83.39
2018-12-25T01:17:42.310Z,83.49
2018-12-25T01:18:42.497Z,83.3
2018-12-25T01:19:42.246Z,83.49
2018-12-25T01:20:42.532Z,83.49
2018-12-25T01:21:42.272Z,83.49
2018-12-25T01:22:42.551Z,83.2
2018-12-25T01:23:42.321Z,83.3
2018-12-25T01:24:42.585Z,83.59
2018-12-25T01:25:42.355Z,83.39
2018-12-25T01:26:42.618Z,83.49
2018-12-25T01:27:42.387Z,83.39
2018-12-25T01:28:42.407Z,83.39
2018-12-25T01:29:42.423Z,83.39
2018-12-25T01:30:42.443Z,83.39
2018-12-25T01:31:42.446Z,83.49
2018-12-25T01:32:42.542Z,83.39
2018-12-25T01:33:42.485Z,83.59
2018-12-25T01:34:42.772Z,83.87
2018-12-25T01:35:42.799Z,83.2
2018-12-25T01:36:42.544Z,83.39
2018-12-25T01:37:42.561Z,83.39
2018-12-25T01:38:42.575Z,83.39
2018-12-25T01:39:42.600Z,83.3
2018-12-25T01:40:42.609Z,83.49
2018-12-25T01:41:42.951Z,83.39
2018-12-25T01:42:42.648Z,83.49
2018-12-25T01:43:42.668Z,83.3
2018-12-25T01:44:42.676Z,83.49
2018-12-25T01:45:42.964Z,83.49
2018-12-25T01:46:42.979Z,83.49
2018-12-25T01:47:42.996Z,83.3
2018-12-25T01:48:43.002Z,83.49
2018-12-25T01:49:43.014Z,83.49
2018-12-25T01:50:42.779Z,83.39
2018-12-25T01:51:42.800Z,83.11
2018-12-25T01:52:43.072Z,83.39
2018-12-25T01:53:42.840Z,83.39
2018-12-25T01:54:42.856Z,83.39
2018-12-25T01:55:42.869Z,83.39
2018-12-25T01:56:42.882Z,83.3
2018-12-25T01:57:42.909Z,83.39
2018-12-25T01:58:42.927Z,83.2
2018-12-25T01:59:42.930Z,83.39
2018-12-25T02:00:42.949Z,83.59
2018-12-25T02:01:42.967Z,83.59
2018-12-25T02:02:42.986Z,83.49
2018-12-25T02:03:43.009Z,83.49
2018-12-25T02:04:43.030Z,83.3
2018-12-25T02:05:43.034Z,83.49
2018-12-25T02:06:43.393Z,83.2
2018-12-25T02:07:43.341Z,83.59
2018-12-25T02:08:43.361Z,83.59
2018-12-25T02:09:43.373Z,83.59
2018-12-25T02:10:43.385Z,83.3
2018-12-25T02:11:43.144Z,83.3
2018-12-25T02:12:43.431Z,83.39
2018-12-25T02:13:43.495Z,83.3
2018-12-25T02:14:43.467Z,83.3
2018-12-25T02:15:43.484Z,83.3
2018-12-25T02:16:43.229Z,83.39
2018-12-25T02:17:43.248Z,83.49
2018-12-25T02:18:43.273Z,83.39
2018-12-25T02:19:43.531Z,83.49
2018-12-25T02:20:43.569Z,83.59
2018-12-25T02:21:43.313Z,83.39
2018-12-25T02:22:43.327Z,83.2
2018-12-25T02:23:43.623Z,83.39
2018-12-25T02:24:43.375Z,83.2
2018-12-25T02:25:43.385Z,83.39
2018-12-25T02:26:43.410Z,83.59
2018-12-25T02:27:43.418Z,83.59
2018-12-25T02:28:43.445Z,83.39
2018-12-25T02:29:43.460Z,83.39
2018-12-25T02:30:43.470Z,83.39
2018-12-25T02:31:43.513Z,83.49
2018-12-25T02:32:43.764Z,83.3
2018-12-25T02:33:43.527Z,83.49
2018-12-25T02:34:43.548Z,83.3
2018-12-25T02:35:43.573Z,83.49
2018-12-25T02:36:43.831Z,83.59
2018-12-25T02:37:43.848Z,83.39
2018-12-25T02:38:44.008Z,83.59
2018-12-25T02:39:43.627Z,83.49
2018-12-25T02:40:43.912Z,83.3
2018-12-25T02:41:43.658Z,83.49
2018-12-25T02:42:43.949Z,83.2
2018-12-25T02:43:43.961Z,83.39
2018-12-25T02:44:43.713Z,83.11
2018-12-25T02:45:43.736Z,83.68
2018-12-25T02:46:43.754Z,83.3
2018-12-25T02:47:43.764Z,83.39
2018-12-25T02:48:43.788Z,83.39
2018-12-25T02:49:52.308Z,83.49
2018-12-25T02:50:43.816Z,83.39
2018-12-25T02:51:43.836Z,83.39
2018-12-25T02:52:43.856Z,83.39
2018-12-25T02:53:44.123Z,83.3
2018-12-25T02:54:44.152Z,83.49
2018-12-25T02:55:44.169Z,83.39
2018-12-25T02:56:44.082Z,83.39
2018-12-25T02:57:43.952Z,83.39
2018-12-25T02:58:43.950Z,83.3
2018-12-25T02:59:44.228Z,83.39
2018-12-25T03:00:46.415Z,83.39
2018-12-25T03:01:44.003Z,83.59
2018-12-25T03:02:44.022Z,83.39
2018-12-25T03:03:44.314Z,83.49
2018-12-25T03:04:44.339Z,83.2
2018-12-25T03:05:44.345Z,83.3
2018-12-25T03:06:44.101Z,83.49
2018-12-25T03:07:44.104Z,83.3
2018-12-25T03:08:44.139Z,83.39
2018-12-25T03:09:44.150Z,83.49
2018-12-25T03:10:44.165Z,83.11
2018-12-25T03:11:44.192Z,83.3
2018-12-25T03:12:44.209Z,83.78
2018-12-25T03:13:44.473Z,83.49
2018-12-25T03:14:44.235Z,83.3
2018-12-25T03:15:44.505Z,83.49
2018-12-25T03:16:44.522Z,83.11
2018-12-25T03:17:44.543Z,83.11
2018-12-25T03:18:44.565Z,83.49
2018-12-25T03:19:44.322Z,83.11
2018-12-25T03:20:44.592Z,83.11
2018-12-25T03:21:44.356Z,83.39
2018-12-25T03:22:44.385Z,83.87
2018-12-25T03:23:44.643Z,83.11
2018-12-25T03:24:44.663Z,83.49
2018-12-25T03:25:44.677Z,83.39
2018-12-25T03:26:44.705Z,83.49
2018-12-25T03:27:44.804Z,83.11
2018-12-25T03:28:44.730Z,83.11
2018-12-25T03:29:44.760Z,83.59
2018-12-25T03:30:44.784Z,83.68
2018-12-25T03:31:44.937Z,83.68
2018-12-25T03:32:44.804Z,83.68
2018-12-25T03:33:44.559Z,83.59
2018-12-25T03:34:44.577Z,83.39
2018-12-25T03:35:44.860Z,83.59
2018-12-25T03:36:44.884Z,83.68
2018-12-25T03:37:44.908Z,83.3
2018-12-25T03:38:44.642Z,83.39
2018-12-25T03:39:44.927Z,83.39
2018-12-25T03:40:44.947Z,83.11
2018-12-25T03:41:44.964Z,83.87
2018-12-25T03:42:44.720Z,83.3
2018-12-25T03:43:44.737Z,83.78
2018-12-25T03:44:44.746Z,83.39
2018-12-25T03:45:44.764Z,83.87
2018-12-25T03:46:45.048Z,83.39
2018-12-25T03:47:44.811Z,83.68
2018-12-25T03:48:44.811Z,83.59
2018-12-25T03:49:44.841Z,83.68
2018-12-25T03:50:44.857Z,83.68
2018-12-25T03:51:45.137Z,83.49
2018-12-25T03:52:44.891Z,83.49
2018-12-25T03:53:44.905Z,83.39
2018-12-25T03:54:44.924Z,83.39
2018-12-25T03:55:44.943Z,83.39
2018-12-25T03:56:44.952Z,83.49
2018-12-25T03:57:44.979Z,83.49
2018-12-25T03:58:45.249Z,83.39
2018-12-25T03:59:45.013Z,83.2
2018-12-25T04:00:45.278Z,83.3
2018-12-25T04:01:45.040Z,83.59
2018-12-25T04:02:45.066Z,83.39
2018-12-25T04:03:45.089Z,83.49
2018-12-25T04:04:45.366Z,83.49
2018-12-25T04:05:45.128Z,83.39
2018-12-25T04:06:45.397Z,83.39
2018-12-25T04:07:45.420Z,83.11
2018-12-25T04:08:45.159Z,83.11
2018-12-25T04:09:45.438Z,83.11
2018-12-25T04:10:45.452Z,83.49
2018-12-25T04:11:45.486Z,83.11
2018-12-25T04:12:45.224Z,83.39
2018-12-25T04:13:45.243Z,83.49
2018-12-25T04:14:45.535Z,83.39
2018-12-25T04:15:45.550Z,83.49
2018-12-25T04:16:45.579Z,83.49
2018-12-25T04:17:45.316Z,83.39
2018-12-25T04:18:45.339Z,83.59
2018-12-25T04:19:45.610Z,83.59
2018-12-25T04:20:45.368Z,83.68
2018-12-25T04:21:45.378Z,83.59
2018-12-25T04:22:45.656Z,83.59
2018-12-25T04:23:45.431Z,83.59
2018-12-25T04:24:45.696Z,83.68
2018-12-25T04:25:45.459Z,83.49
2018-12-25T04:26:45.467Z,83.49
2018-12-25T04:27:45.503Z,83.49
2018-12-25T04:28:45.518Z,83.68
2018-12-25T04:29:45.526Z,83.59
2018-12-25T04:30:45.553Z,83.68
2018-12-25T04:31:45.832Z,83.59
2018-12-25T04:32:45.584Z,83.78
2018-12-25T04:33:45.852Z,83.49
2018-12-25T04:34:45.869Z,83.59
2018-12-25T04:35:45.638Z,83.59
2018-12-25T04:36:45.917Z,83.68
2018-12-25T04:37:45.667Z,83.59
2018-12-25T04:38:45.950Z,83.39
2018-12-25T04:39:45.950Z,83.3
2018-12-25T04:40:45.726Z,83.39
2018-12-25T04:41:45.997Z,83.2
2018-12-25T04:42:46.004Z,83.3
2018-12-25T04:43:46.025Z,83.49
2018-12-25T04:44:45.785Z,83.39
2018-12-25T04:45:46.066Z,83.39
2018-12-25T04:46:45.817Z,83.49
2018-12-25T04:47:45.848Z,83.39
2018-12-25T04:48:45.848Z,83.59
2018-12-25T04:49:46.136Z,83.39
2018-12-25T04:50:46.144Z,83.59
2018-12-25T04:51:45.902Z,83.49
2018-12-25T04:52:46.189Z,83.2
2018-12-25T04:53:45.948Z,83.2
2018-12-25T04:54:46.252Z,83.49
2018-12-25T04:55:45.972Z,83.49
2018-12-25T04:56:45.996Z,83.39
2018-12-25T04:57:46.014Z,83.49
2018-12-25T04:58:46.024Z,83.59
2018-12-25T04:59:46.035Z,83.68
2018-12-25T05:00:46.339Z,83.59
2018-12-25T05:01:46.348Z,83.59
2018-12-25T05:02:46.105Z,83.49
2018-12-25T05:03:46.111Z,83.49
2018-12-25T05:04:46.395Z,83.39
2018-12-25T05:05:46.140Z,83.49
2018-12-25T05:06:46.157Z,83.49
2018-12-25T05:07:46.184Z,83.3
2018-12-25T05:08:46.197Z,83.39
2018-12-25T05:09:46.483Z,83.39
2018-12-25T05:10:46.238Z,83.59
2018-12-25T05:11:46.262Z,83.49
2018-12-25T05:12:46.271Z,83.49
2018-12-25T05:13:46.281Z,83.68
2018-12-25T05:14:46.569Z,83.78
2018-12-25T05:15:46.323Z,83.68
2018-12-25T05:16:46.702Z,83.49
2018-12-25T05:17:46.621Z,83.68
2018-12-25T05:18:46.371Z,83.68
2018-12-25T05:19:46.711Z,83.3
2018-12-25T05:20:46.676Z,83.49
2018-12-25T05:21:46.419Z,83.2
2018-12-25T05:22:46.702Z,83.3
2018-12-25T05:23:46.453Z,83.3
2018-12-25T05:24:46.724Z,83.3
2018-12-25T05:25:46.489Z,83.39
2018-12-25T05:26:46.780Z,83.49
2018-12-25T05:27:46.778Z,83.49
2018-12-25T05:28:46.812Z,83.2
2018-12-25T05:29:46.815Z,83.49
2018-12-25T05:30:46.842Z,83.59
2018-12-25T05:31:46.846Z,83.49
2018-12-25T05:32:46.876Z,83.59
2018-12-25T05:33:46.888Z,83.49
2018-12-25T05:34:46.641Z,83.49
2018-12-25T05:35:46.668Z,83.59
2018-12-25T05:36:46.938Z,83.39
2018-12-25T05:37:46.703Z,83.49
2018-12-25T05:38:46.968Z,83.39
2018-12-25T05:39:47.003Z,83.49
2018-12-25T05:40:46.801Z,83.59
2018-12-25T05:41:47.032Z,83.49
2018-12-25T05:42:46.795Z,83.59
2018-12-25T05:43:47.075Z,83.39
2018-12-25T05:44:46.823Z,83.3
2018-12-25T05:45:46.846Z,83.39
2018-12-25T05:46:46.855Z,83.59
2018-12-25T05:47:47.131Z,83.49
2018-12-25T05:48:46.885Z,83.59
2018-12-25T05:49:46.907Z,83.59
2018-12-25T05:50:49.018Z,83.49
2018-12-25T05:51:46.945Z,83.3
2018-12-25T05:52:46.957Z,83.78
2018-12-25T05:53:46.968Z,83.49
2018-12-25T05:54:47.262Z,83.68
2018-12-25T05:55:47.013Z,83.68
2018-12-25T05:56:47.034Z,83.68
2018-12-25T05:57:47.047Z,83.59
2018-12-25T05:58:47.053Z,83.68
2018-12-25T05:59:47.075Z,83.59
2018-12-25T06:00:47.363Z,83.68
2018-12-25T06:01:47.107Z,83.49
2018-12-25T06:02:47.334Z,83.39
2018-12-25T06:03:47.154Z,83.11
2018-12-25T06:04:47.433Z,83.39
2018-12-25T06:05:47.178Z,83.87
2018-12-25T06:06:47.198Z,83.3
2018-12-25T06:07:47.486Z,83.49
2018-12-25T06:08:47.242Z,83.68
2018-12-25T06:09:47.520Z,83.39
2018-12-25T06:10:47.538Z,83.39
2018-12-25T06:11:47.552Z,83.59
2018-12-25T06:12:47.575Z,83.49
2018-12-25T06:13:47.591Z,83.68
2018-12-25T06:14:47.337Z,83.59
2018-12-25T06:15:47.625Z,83.68
2018-12-25T06:16:47.378Z,83.68
2018-12-25T06:17:47.397Z,83.68
2018-12-25T06:18:47.403Z,83.49
2018-12-25T06:19:47.423Z,83.49
2018-12-25T06:20:54.906Z,83.68
2018-12-25T06:21:47.466Z,83.68
2018-12-25T06:22:47.749Z,83.68
2018-12-25T06:23:47.499Z,83.68
2018-12-25T06:24:47.514Z,83.68
2018-12-25T06:25:47.531Z,83.3
2018-12-25T06:26:47.803Z,83.39
2018-12-25T06:27:47.559Z,83.39
2018-12-25T06:28:47.835Z,83.78
2018-12-25T06:29:47.606Z,83.39
2018-12-25T06:30:47.885Z,83.49
2018-12-25T06:31:47.896Z,83.68
2018-12-25T06:32:47.645Z,83.68
2018-12-25T06:33:47.927Z,83.68
2018-12-25T06:34:47.942Z,83.49
2018-12-25T06:35:47.956Z,83.68
2018-12-25T06:36:47.722Z,83.68
2018-12-25T06:37:47.738Z,83.59
2018-12-25T06:38:48.008Z,83.59
2018-12-25T06:39:47.776Z,83.59
2018-12-25T06:40:48.041Z,83.3
2018-12-25T06:41:48.062Z,83.11
2018-12-25T06:42:48.074Z,83.11
2018-12-25T06:43:47.845Z,83.49
2018-12-25T06:44:47.861Z,83.3
2018-12-25T06:45:48.144Z,83.39
2018-12-25T06:46:47.904Z,83.11
2018-12-25T06:47:48.165Z,83.3
2018-12-25T06:48:47.933Z,83.39
2018-12-25T06:49:48.211Z,83.39
2018-12-25T06:50:47.958Z,83.39
2018-12-25T06:51:48.247Z,83.39
2018-12-25T06:52:47.993Z,83.3
2018-12-25T06:53:48.010Z,83.3
2018-12-25T06:54:48.294Z,83.3
2018-12-25T06:55:48.314Z,83.39
2018-12-25T06:56:48.316Z,83.39
2018-12-25T06:57:48.080Z,83.39
2018-12-25T06:58:48.353Z,83.3
2018-12-25T06:59:48.115Z,83.2
2018-12-25T07:00:48.130Z,83.3
2018-12-25T07:01:48.149Z,83.39
2018-12-25T07:02:48.161Z,83.3
2018-12-25T07:03:48.193Z,83.11
2018-12-25T07:04:48.342Z,83.39
2018-12-25T07:05:48.477Z,83.39
2018-12-25T07:06:50.484Z,83.39
2018-12-25T07:07:48.249Z,83.39
2018-12-25T07:08:48.544Z,83.11
2018-12-25T07:09:48.553Z,83.39
2018-12-25T07:10:48.574Z,83.68
2018-12-25T07:11:48.601Z,83.49
2018-12-25T07:12:48.348Z,83.39
2018-12-25T07:13:48.362Z,83.49
2018-12-25T07:14:48.380Z,83.59
2018-12-25T07:15:48.385Z,83.59
2018-12-25T07:16:48.680Z,83.78
2018-12-25T07:17:48.692Z,83.59
2018-12-25T07:18:48.705Z,83.68
2018-12-25T07:19:48.462Z,83.59
2018-12-25T07:20:48.470Z,83.68
2018-12-25T07:21:48.495Z,83.68
2018-12-25T07:22:48.606Z,83.68
2018-12-25T07:23:48.535Z,83.68
2018-12-25T07:24:48.544Z,83.2
2018-12-25T07:25:48.815Z,83.3
2018-12-25T07:26:48.575Z,83.2
2018-12-25T07:27:48.607Z,83.39
2018-12-25T07:28:48.864Z,83.2
2018-12-25T07:29:50.307Z,83.39
2018-12-25T07:30:48.899Z,83.49
2018-12-25T07:31:48.921Z,83.3
2018-12-25T07:32:48.674Z,83.39
2018-12-25T07:33:48.699Z,83.39
2018-12-25T07:34:48.986Z,83.3
2018-12-25T07:35:48.729Z,83.2
2018-12-25T07:36:48.754Z,83.68
2018-12-25T07:37:48.774Z,83.68
2018-12-25T07:38:48.780Z,83.49
2018-12-25T07:39:48.797Z,83.39
2018-12-25T07:40:48.827Z,83.59
2018-12-25T07:41:48.836Z,83.49
2018-12-25T07:42:49.106Z,83.49
2018-12-25T07:43:49.127Z,83.59
2018-12-25T07:44:48.892Z,83.49
2018-12-25T07:45:48.905Z,83.59
2018-12-25T07:46:49.193Z,83.49
2018-12-25T07:47:48.955Z,83.49
2018-12-25T07:48:49.215Z,83.2
2018-12-25T07:49:49.038Z,83.39
2018-12-25T07:50:49.001Z,83.3
2018-12-25T07:51:49.280Z,83.49
2018-12-25T07:52:49.297Z,83.68
2018-12-25T07:53:49.046Z,83.68
2018-12-25T07:54:49.380Z,83.49
2018-12-25T07:55:49.327Z,83.59
2018-12-25T07:56:49.094Z,83.78
2018-12-25T07:57:49.106Z,83.68
2018-12-25T07:58:49.382Z,83.68
2018-12-25T07:59:49.409Z,83.78
2018-12-25T08:00:49.417Z,83.59
2018-12-25T08:01:49.523Z,83.39
2018-12-25T08:02:49.453Z,83.68
2018-12-25T08:03:49.469Z,83.59
2018-12-25T08:04:49.490Z,83.68
2018-12-25T08:05:49.510Z,83.68
2018-12-25T08:06:49.526Z,83.68
2018-12-25T08:07:49.279Z,83.59
2018-12-25T08:08:49.557Z,83.39
2018-12-25T08:09:49.324Z,83.11
2018-12-25T08:10:49.342Z,83.78
2018-12-25T08:11:49.365Z,83.49
2018-12-25T08:12:49.623Z,83.78
2018-12-25T08:13:49.640Z,83.3
2018-12-25T08:14:49.667Z,83.49
2018-12-25T08:15:49.683Z,83.2
2018-12-25T08:16:49.443Z,83.39
2018-12-25T08:17:49.452Z,83.49
2018-12-25T08:18:49.483Z,83.49
2018-12-25T08:19:49.500Z,83.3
2018-12-25T08:20:49.519Z,83.59
2018-12-25T08:21:49.523Z,83.39
2018-12-25T08:22:49.550Z,83.2
2018-12-25T08:23:49.555Z,83.39
2018-12-25T08:24:49.587Z,83.11
2018-12-25T08:25:49.595Z,83.49
2018-12-25T08:26:49.867Z,83.11
2018-12-25T08:27:49.634Z,83.01
2018-12-25T08:28:49.917Z,83.2
2018-12-25T08:29:49.931Z,83.11
2018-12-25T08:30:49.681Z,83.11
2018-12-25T08:31:49.698Z,83.2
2018-12-25T08:32:49.724Z,83.3
2018-12-25T08:33:49.739Z,83.39
2018-12-25T08:34:49.767Z,82.54
2018-12-25T08:35:49.767Z,82.73
2018-12-25T08:36:50.054Z,83.01
2018-12-25T08:37:49.893Z,82.82
2018-12-25T08:38:50.090Z,83.01
2018-12-25T08:39:49.841Z,82.82
2018-12-25T08:40:50.171Z,82.64
2018-12-25T08:41:51.395Z,82.64
2018-12-25T08:42:50.155Z,82.64
2018-12-25T08:43:50.162Z,82.64
2018-12-25T08:44:50.246Z,82.45
2018-12-25T08:45:50.211Z,82.92
2018-12-25T08:46:50.227Z,82.82
2018-12-25T08:47:49.973Z,82.82
2018-12-25T08:48:49.996Z,82.82
2018-12-25T08:49:50.372Z,82.64
2018-12-25T08:50:50.031Z,82.82
2018-12-25T08:51:50.297Z,83.01
2018-12-25T08:52:50.316Z,82.82
2018-12-25T08:53:50.349Z,82.73
2018-12-25T08:54:50.365Z,82.73
2018-12-25T08:55:50.371Z,82.92
2018-12-25T08:56:50.138Z,82.82
2018-12-25T08:57:50.152Z,83.2
2018-12-25T08:58:50.433Z,82.82
2018-12-25T08:59:50.200Z,83.01
2018-12-25T09:00:50.460Z,83.11
2018-12-25T09:01:50.477Z,82.82
2018-12-25T09:02:50.241Z,83.11
2018-12-25T09:03:50.509Z,82.73
2018-12-25T09:04:50.592Z,83.2
2018-12-25T09:05:50.291Z,82.82
2018-12-25T09:06:50.300Z,82.82
2018-12-25T09:07:50.320Z,82.64
2018-12-25T09:08:50.335Z,82.68
2018-12-25T09:09:50.416Z,82.68
2018-12-25T09:10:50.372Z,83.2
2018-12-25T09:11:50.385Z,83.2
2018-12-25T09:12:50.416Z,83.01
2018-12-25T09:13:50.693Z,83.01
2018-12-25T09:14:50.437Z,83.34
2018-12-25T09:15:50.731Z,83.2
2018-12-25T09:16:50.481Z,83.11
2018-12-25T09:17:50.492Z,83.2
2018-12-25T09:18:50.532Z,83.3
2018-12-25T09:19:50.785Z,82.54
2018-12-25T09:20:50.553Z,82.49
2018-12-25T09:21:50.564Z,82.64
2018-12-25T09:22:50.577Z,82.77
2018-12-25T09:23:50.598Z,82.68
2018-12-25T09:24:50.873Z,82.39
2018-12-25T09:25:50.637Z,82.35
2018-12-25T09:26:50.905Z,82.39
2018-12-25T09:27:50.927Z,82.77
2018-12-25T09:28:50.691Z,82.77
2018-12-25T09:29:50.766Z,82.1
2018-12-25T09:30:50.724Z,82.1
2018-12-25T09:31:50.736Z,82.29
2018-12-25T09:32:50.760Z,82.2
2018-12-25T09:33:50.774Z,82.39
2018-12-25T09:34:50.800Z,82.29
2018-12-25T09:35:50.812Z,81.92
2018-12-25T09:36:50.825Z,82.01
2018-12-25T09:37:50.843Z,82.1
2018-12-25T09:38:50.862Z,82.1
2018-12-25T09:39:50.873Z,82.01
2018-12-25T09:40:51.163Z,82.1
2018-12-25T09:41:50.917Z,82.2
2018-12-25T09:42:51.208Z,82.1
2018-12-25T09:43:50.955Z,82.29
2018-12-25T09:44:50.974Z,82.29
2018-12-25T09:45:50.979Z,81.73
2018-12-25T09:46:51.109Z,82.2
2018-12-25T09:47:51.281Z,82.01
2018-12-25T09:48:51.042Z,81.82
2018-12-25T09:49:51.060Z,81.82
2018-12-25T09:50:51.072Z,81.92
2018-12-25T09:51:56.796Z,82.01
2018-12-25T09:52:51.106Z,81.92
2018-12-25T09:53:51.392Z,82.01
2018-12-25T09:54:51.400Z,82.1
2018-12-25T09:55:51.160Z,81.92
2018-12-25T09:56:51.181Z,82.1
2018-12-25T09:57:51.192Z,82.1
2018-12-25T09:58:51.472Z,81.92
2018-12-25T09:59:51.489Z,81.25
2018-12-25T10:00:51.254Z,81.25
2018-12-25T10:01:51.613Z,81.25
2018-12-25T10:02:51.282Z,81.35
2018-12-25T10:03:51.564Z,81.44
2018-12-25T10:04:51.309Z,81.54
2018-12-25T10:05:51.585Z,81.54
2018-12-25T10:06:51.615Z,81.44
2018-12-25T10:07:51.617Z,81.54
2018-12-25T10:08:51.389Z,81.44
2018-12-25T10:09:51.397Z,81.54
2018-12-25T10:10:51.416Z,81.54
2018-12-25T10:11:51.686Z,81.73
2018-12-25T10:12:51.710Z,81.35
2018-12-25T10:13:51.474Z,81.35
2018-12-25T10:14:51.488Z,81.63
2018-12-25T10:15:51.511Z,81.63
2018-12-25T10:16:52.190Z,81.44
2018-12-25T10:17:51.790Z,81.44
2018-12-25T10:18:51.814Z,81.73
2018-12-25T10:19:51.584Z,81.16
2018-12-25T10:20:51.599Z,81.16
2018-12-25T10:21:51.873Z,81.25
2018-12-25T10:22:51.887Z,81.54
2018-12-25T10:23:51.900Z,81.35
2018-12-25T10:24:53.608Z,81.25
2018-12-25T10:25:51.677Z,81.44
2018-12-25T10:26:51.968Z,81.25
2018-12-25T10:27:51.968Z,81.35
2018-12-25T10:28:51.736Z,81.44
2018-12-25T10:29:51.748Z,81.54
2018-12-25T10:30:52.040Z,81.16
2018-12-25T10:31:52.040Z,81.54
2018-12-25T10:32:51.808Z,81.06
2018-12-25T10:33:51.814Z,81.54
2018-12-25T10:34:51.838Z,81.16
2018-12-25T10:35:52.124Z,81.25
2018-12-25T10:36:52.137Z,81.54
2018-12-25T10:37:51.893Z,81.25
2018-12-25T10:38:51.907Z,81.54
2018-12-25T10:39:52.194Z,81.25
2018-12-25T10:40:51.953Z,81.16
2018-12-25T10:41:51.967Z,81.44
2018-12-25T10:42:51.985Z,81.54
2018-12-25T10:43:52.259Z,81.73
2018-12-25T10:44:52.282Z,81.54
2018-12-25T10:45:52.038Z,81.73
2018-12-25T10:46:52.053Z,81.54
2018-12-25T10:47:52.333Z,81.73
2018-12-25T10:48:52.337Z,81.73
2018-12-25T10:49:52.351Z,81.35
2018-12-25T10:50:52.117Z,81.73
2018-12-25T10:51:52.131Z,81.82
2018-12-25T10:52:52.406Z,81.73
2018-12-25T10:53:52.424Z,81.73
2018-12-25T10:54:52.454Z,81.44
2018-12-25T10:55:52.470Z,81.44
2018-12-25T10:56:52.231Z,81.44
2018-12-25T10:57:52.249Z,81.44
2018-12-25T10:58:52.267Z,81.25
2018-12-25T10:59:52.544Z,81.54
2018-12-25T11:00:52.312Z,81.44
2018-12-25T11:01:52.572Z,81.16
2018-12-25T11:02:52.337Z,81.16
2018-12-25T11:03:52.630Z,81.25
2018-12-25T11:04:52.365Z,81.16
2018-12-25T11:05:52.636Z,81.06
2018-12-25T11:06:52.404Z,81.16
2018-12-25T11:07:52.422Z,81.16
2018-12-25T11:08:52.430Z,80.87
2018-12-25T11:09:52.449Z,80.96
2018-12-25T11:10:52.471Z,81.25
2018-12-25T11:11:52.735Z,80.96
2018-12-25T11:12:52.496Z,81.06
2018-12-25T11:13:52.786Z,81.16
2018-12-25T11:14:52.543Z,81.25
2018-12-25T11:15:52.563Z,81.16
2018-12-25T11:16:52.580Z,81.06
2018-12-25T11:17:52.588Z,81.16
2018-12-25T11:18:52.870Z,81.06
2018-12-25T11:19:52.626Z,81.01
2018-12-25T11:20:52.913Z,81.35
2018-12-25T11:21:53.033Z,81.16
2018-12-25T11:22:52.933Z,81.25
2018-12-25T11:23:52.953Z,81.16
2018-12-25T11:24:52.710Z,81.1
2018-12-25T11:25:52.985Z,81.38
2018-12-25T11:26:53.009Z,81.29
2018-12-25T11:27:53.022Z,80.63
2018-12-25T11:28:52.785Z,80.72
2018-12-25T11:29:52.793Z,80.72
2018-12-25T11:30:53.070Z,80.91
2018-12-25T11:31:53.116Z,80.82
2018-12-25T11:32:52.863Z,80.82
2018-12-25T11:33:52.863Z,80.72
2018-12-25T11:34:53.142Z,80.72
2018-12-25T11:35:53.224Z,80.63
2018-12-25T11:36:52.917Z,80.63
2018-12-25T11:37:52.955Z,80.82
2018-12-25T11:38:52.957Z,80.05
2018-12-25T11:39:52.981Z,80.82
2018-12-25T11:40:53.002Z,80.82
2018-12-25T11:41:53.009Z,80.82
2018-12-25T11:42:53.298Z,80.82
2018-12-25T11:43:53.301Z,80.72
2018-12-25T11:44:53.334Z,80.63
2018-12-25T11:45:53.078Z,80.44
2018-12-25T11:46:53.352Z,80.15
2018-12-25T11:47:53.117Z,80.82
2018-12-25T11:48:53.127Z,80.91
2018-12-25T11:49:53.147Z,80.82
2018-12-25T11:50:53.446Z,80.24
2018-12-25T11:51:53.179Z,80.44
2018-12-25T11:52:53.201Z,80.15
2018-12-25T11:53:53.478Z,80.24
2018-12-25T11:54:53.498Z,80.15
2018-12-25T11:55:53.266Z,79.96
2018-12-25T11:56:53.275Z,80.44
2018-12-25T11:57:53.298Z,80.44
2018-12-25T11:58:53.305Z,80.15
2018-12-25T11:59:53.324Z,80.44
2018-12-25T12:00:53.347Z,80.44
2018-12-25T12:01:53.365Z,80.44
2018-12-25T12:02:53.395Z,80.34
2018-12-25T12:03:53.663Z,80.63
2018-12-25T12:04:53.664Z,80.72
2018-12-25T12:05:53.433Z,80.63
2018-12-25T12:06:53.704Z,80.34
2018-12-25T12:07:53.474Z,80.53
2018-12-25T12:08:53.492Z,80.44
2018-12-25T12:09:53.769Z,80.34
2018-12-25T12:10:53.773Z,80.44
2018-12-25T12:11:53.535Z,80.44
2018-12-25T12:12:53.829Z,80.44
2018-12-25T12:13:53.823Z,80.44
2018-12-25T12:14:53.858Z,80.82
2018-12-25T12:15:53.616Z,80.53
2018-12-25T12:16:53.623Z,80.53
2018-12-25T12:17:53.644Z,80.53
2018-12-25T12:18:53.915Z,80.72
2018-12-25T12:19:53.682Z,80.63
2018-12-25T12:20:53.794Z,80.34
2018-12-25T12:21:53.709Z,80.34
2018-12-25T12:22:53.723Z,80.24
2018-12-25T12:23:53.753Z,80.24
2018-12-25T12:24:53.765Z,80.15
2018-12-25T12:25:53.793Z,80.05
2018-12-25T12:26:54.069Z,80.15
2018-12-25T12:27:53.828Z,80.05
2018-12-25T12:28:53.844Z,80.24
2018-12-25T12:29:54.127Z,80.05
2018-12-25T12:30:53.884Z,80.15
2018-12-25T12:31:53.890Z,80.24
2018-12-25T12:32:54.164Z,80.24
2018-12-25T12:33:54.193Z,80.05
2018-12-25T12:34:54.198Z,79.96
2018-12-25T12:35:53.963Z,80.15
2018-12-25T12:36:54.243Z,80.05
2018-12-25T12:37:54.007Z,79.86
2018-12-25T12:38:54.266Z,79.86
2018-12-25T12:39:54.298Z,79.86
2018-12-25T12:40:54.304Z,79.86
2018-12-25T12:41:54.065Z,79.96
2018-12-25T12:42:54.094Z,79.96
2018-12-25T12:43:54.375Z,79.96
2018-12-25T12:44:54.127Z,79.86
2018-12-25T12:45:54.396Z,79.96
2018-12-25T12:46:54.424Z,80.05
2018-12-25T12:47:54.181Z,79.86
2018-12-25T12:48:54.197Z,79.86
2018-12-25T12:49:54.204Z,79.77
2018-12-25T12:50:54.223Z,79.86
2018-12-25T12:51:54.251Z,79.86
2018-12-25T12:52:54.268Z,79.86
2018-12-25T12:53:54.551Z,79.96
2018-12-25T12:54:54.298Z,79.86
2018-12-25T12:55:54.577Z,79.96
2018-12-25T12:56:54.333Z,79.68